Strona główna
METAR-TAF:

METAR-TAF

Lotnisko :

Port lotniczy Taszkent

Taszkent, Uzbekistan

Szerokość geograficzna: 41-16N, Długość geograficzna: 069-16E, wysokość: 489 m

Aktualna obserwacja pogody

Raport powstał 39 minut temu, godzina 12:00 UTC
Wiatr 6 kt od południowy zachód, zmienny między południe i zachód
Temperatura 34°C
Wilgotność 16%
Ciśnienie 1004 hPa
Widzialność 10 km lub więcej
Brak chmur poniżej 1500 m i brak chmur cumulonimbus

METAR: UTTT 181200Z 23006KT 190V280 CAVOK 34/05 Q1004 R26R/CLRD70 NOSIG

czas: 17:39 (12:39 UTC)

Prognoza

Raport powstał 1 godzina i 39 minut temu, godzina 11:00 UTC
Prognoza ważna od 18 godzina 12 UTC do 19 godzina 12 UTC
Wiatr 12 kt od zachód
Widzialność: 7000 m
Przejściowo
od 18 godzina 12 UTC do 18 godzina 22 UTC
Wiatr 10 kt od północ w porywach dochodzący do 20 kt
Mało chmury na wysokości 6000 ft, Cumulonimbus.

TAF: UTTT 181100Z 1812/1912 26012KT 7000 NSC TEMPO 1812/1822 35010G20KT FEW060CB

Obserwacja i prognoza pogody dla ponad 4000 lotnisk (raport METAR i TAF).

Dostępne stacje oznaczono żółtymi i czerwonymi punktami na mapie.

Najedź kursorem aby zobaczyć nazwę stacji.

Kliknij aby zobaczyć obserwacje i prognozy pogody.

Aby zmienić mapę: kliknij na zielony przycisk z czarnym krzyżykiem, aby powiększyć; na zielony przycisk z myślnikiem, aby pomniejszyć; na zielone strzałki, aby przejść do map sąsiednich.


METAR-TAF: